Pietro Novelli — IOTQ — position and weather

sailwx.info

Track history (hours):
 
Tides and Currents Weather Stations Pressure Air Temp Water Temp Dewpoint Dewpoint Depression Visibility Wind Speed Wind Dir Waves Ship Positions

Pietro Novelli

Last reported at 2016-Dec-07 16:32 UTC. Time now 2016-Dec-08 18:14 UTC.
Position N 38°01' E 012°30'.

Length 91 m; draft 3.7 m.

Type: Ship. MMSI: 247000300.

Date/timePositionNaut miles runAvg speedWind from/ knotsBaromVisibWave heightAir tempDewpointWater temp
2016-Dec-07 16:32N 38°01' E 012°30'0 0.0
2016-Dec-07 15:33N 38°01' E 012°30'3 2.6
2016-Dec-07 14:33N 37°59' E 012°28'1313.4
2016-Dec-07 13:33N 37°48' E 012°18'4 0.3
2016-Dec-06 23:15N 37°52' E 012°22'811.1
2016-Dec-06 22:33N 37°58' E 012°26'4 4.0
2016-Dec-06 21:33N 38°01' E 012°30'0 0.0
2016-Dec-06 20:33N 38°01' E 012°30'0 0.0
2016-Dec-06 18:34N 38°01' E 012°30'0 0.0
2016-Dec-06 17:33N 38°01' E 012°30'0 0.0
2016-Dec-06 16:34N 38°01' E 012°30'0 0.0
2016-Dec-06 15:33N 38°01' E 012°30'5 4.6
2016-Dec-06 14:34N 37°58' E 012°26'7 0.4
2016-Dec-05 23:17N 37°52' E 012°22'811.3
2016-Dec-05 22:33N 37°59' E 012°27'3 3.0
2016-Dec-05 21:33N 38°01' E 012°30'0 0.0
2016-Dec-05 20:34N 38°01' E 012°30'0 0.0
2016-Dec-05 19:33N 38°01' E 012°30'0 0.0
2016-Dec-05 18:33N 38°01' E 012°30'0 0.0
2016-Dec-05 17:33N 38°01' E 012°30'0 0.0
2016-Dec-05 16:33N 38°01' E 012°30'0 0.0
2016-Dec-05 15:33N 38°01' E 012°30'2 2.4
2016-Dec-05 14:33N 37°60' E 012°28'9 0.6
2016-Dec-04 23:04N 37°52' E 012°22'611.8
2016-Dec-04 22:33N 37°57' E 012°26'5 0.2
2016-Dec-04 00:33N 38°01' E 012°30'0 0.0
2016-Dec-03 23:09N 38°01' E 012°30'0 0.0
2016-Dec-03 22:21N 38°01' E 012°30'0 0.0
2016-Dec-03 21:34N 38°01' E 012°30'0 0.0
2016-Dec-03 20:34N 38°01' E 012°30'0 0.0
2016-Dec-03 19:34N 38°01' E 012°30'0 0.0
2016-Dec-03 18:33N 38°01' E 012°30'0 0.0
2016-Dec-03 17:33N 38°01' E 012°30'2 2.1
2016-Dec-03 16:33N 37°60' E 012°28'11 0.6
2016-Dec-02 23:31N 37°51' E 012°20'1111.3
2016-Dec-02 22:33N 37°60' E 012°28'2 1.8
2016-Dec-02 21:33N 38°01' E 012°30'0 0.0
2016-Dec-02 20:33N 38°01' E 012°30'0 0.0
2016-Dec-02 19:33N 38°01' E 012°30'0 0.0
2016-Dec-02 18:33N 38°01' E 012°30'0 0.0
2016-Dec-02 17:33N 38°01' E 012°30'5 4.5
2016-Dec-02 16:33N 37°58' E 012°26'7 0.4
2016-Dec-01 23:10N 37°52' E 012°22'711.8
2016-Dec-01 22:33N 37°59' E 012°27'4 3.3
2016-Dec-01 21:27N 38°01' E 012°30'0 0.0
2016-Dec-01 20:30N 38°01' E 012°30'0 0.1
2016-Dec-01 19:33N 38°01' E 012°30'11 0.9
2016-Dec-01 07:19N 37°52' E 012°22'1012.5
2016-Dec-01 06:33N 37°60' E 012°29'2 0.1
2016-Nov-30 10:05N 38°01' E 012°30'0 0.0
2016-Nov-30 08:29N 38°01' E 012°30'0 0.0
2016-Nov-30 06:27N 38°01' E 012°30'0 0.0
2016-Nov-30 05:29N 38°01' E 012°30'0 0.0
2016-Nov-30 04:33N 38°01' E 012°30'0 0.0
2016-Nov-30 03:33N 38°01' E 012°30'0 0.0
2016-Nov-30 02:33N 38°01' E 012°30'0 0.0
2016-Nov-29 21:29N 38°01' E 012°30'0 0.0
2016-Nov-29 20:33N 38°01' E 012°30'0 0.0
2016-Nov-29 19:33N 38°01' E 012°30'0 0.0
2016-Nov-29 18:33N 38°01' E 012°30'0 0.0
2016-Nov-29 17:33N 38°01' E 012°30'0 0.0
2016-Nov-29 16:33N 38°01' E 012°30'0 0.0
2016-Nov-29 15:34N 38°01' E 012°30'0 0.0
2016-Nov-29 14:34N 38°01' E 012°30'0 0.1
2016-Nov-29 13:33N 38°01' E 012°30'1110.8
2016-Nov-29 12:33N 37°53' E 012°21'1 0.1
2016-Nov-28 23:11N 37°51' E 012°22'812.2
2016-Nov-28 22:33N 37°58' E 012°26'4 4.1
2016-Nov-28 21:33N 38°01' E 012°30'0 0.0
2016-Nov-28 20:33N 38°01' E 012°30'0 0.0
2016-Nov-28 19:33N 38°01' E 012°30'0 0.0
2016-Nov-28 18:33N 38°01' E 012°30'0 0.0
2016-Nov-28 17:33N 38°01' E 012°30'0 0.0
2016-Nov-28 16:33N 38°01' E 012°30'0 0.0
2016-Nov-28 15:33N 38°01' E 012°30'2 2.2
2016-Nov-28 14:33N 37°59' E 012°28'9 0.6
2016-Nov-27 23:09N 37°52' E 012°22'711.9
2016-Nov-27 22:33N 37°58' E 012°26'  
Track history (hours):
 
Tides and Currents Weather Stations Pressure Air Temp Water Temp Dewpoint Dewpoint Depression Visibility Wind Speed Wind Dir Waves Ship Positions

Pietro Novelli

Last reported at 2016-Dec-07 16:32 UTC. Time now 2016-Dec-08 18:14 UTC.
Position N 38°01' E 012°30'.

Length 91 m; draft 3.7 m.

Type: Ship. MMSI: 247000300.

Date/timePositionNaut miles runAvg speedWind from/ knotsBaromVisibWave heightAir tempDewpointWater temp
2016-Dec-07 16:32N 38°01' E 012°30'0 0.0
2016-Dec-07 15:33N 38°01' E 012°30'3 2.6
2016-Dec-07 14:33N 37°59' E 012°28'1313.4
2016-Dec-07 13:33N 37°48' E 012°18'4 0.3
2016-Dec-06 23:15N 37°52' E 012°22'811.1
2016-Dec-06 22:33N 37°58' E 012°26'4 4.0
2016-Dec-06 21:33N 38°01' E 012°30'0 0.0
2016-Dec-06 20:33N 38°01' E 012°30'0 0.0
2016-Dec-06 18:34N 38°01' E 012°30'0 0.0
2016-Dec-06 17:33N 38°01' E 012°30'0 0.0
2016-Dec-06 16:34N 38°01' E 012°30'0 0.0
2016-Dec-06 15:33N 38°01' E 012°30'5 4.6
2016-Dec-06 14:34N 37°58' E 012°26'7 0.4
2016-Dec-05 23:17N 37°52' E 012°22'811.3
2016-Dec-05 22:33N 37°59' E 012°27'3 3.0
2016-Dec-05 21:33N 38°01' E 012°30'0 0.0
2016-Dec-05 20:34N 38°01' E 012°30'0 0.0
2016-Dec-05 19:33N 38°01' E 012°30'0 0.0
2016-Dec-05 18:33N 38°01' E 012°30'0 0.0
2016-Dec-05 17:33N 38°01' E 012°30'0 0.0
2016-Dec-05 16:33N 38°01' E 012°30'0 0.0
2016-Dec-05 15:33N 38°01' E 012°30'2 2.4
2016-Dec-05 14:33N 37°60' E 012°28'9 0.6
2016-Dec-04 23:04N 37°52' E 012°22'611.8
2016-Dec-04 22:33N 37°57' E 012°26'5 0.2
2016-Dec-04 00:33N 38°01' E 012°30'0 0.0
2016-Dec-03 23:09N 38°01' E 012°30'0 0.0
2016-Dec-03 22:21N 38°01' E 012°30'0 0.0
2016-Dec-03 21:34N 38°01' E 012°30'0 0.0
2016-Dec-03 20:34N 38°01' E 012°30'0 0.0
2016-Dec-03 19:34N 38°01' E 012°30'0 0.0
2016-Dec-03 18:33N 38°01' E 012°30'0 0.0
2016-Dec-03 17:33N 38°01' E 012°30'2 2.1
2016-Dec-03 16:33N 37°60' E 012°28'11 0.6
2016-Dec-02 23:31N 37°51' E 012°20'1111.3
2016-Dec-02 22:33N 37°60' E 012°28'2 1.8
2016-Dec-02 21:33N 38°01' E 012°30'0 0.0
2016-Dec-02 20:33N 38°01' E 012°30'0 0.0
2016-Dec-02 19:33N 38°01' E 012°30'0 0.0
2016-Dec-02 18:33N 38°01' E 012°30'0 0.0
2016-Dec-02 17:33N 38°01' E 012°30'5 4.5
2016-Dec-02 16:33N 37°58' E 012°26'7 0.4
2016-Dec-01 23:10N 37°52' E 012°22'711.8
2016-Dec-01 22:33N 37°59' E 012°27'4 3.3
2016-Dec-01 21:27N 38°01' E 012°30'0 0.0
2016-Dec-01 20:30N 38°01' E 012°30'0 0.1
2016-Dec-01 19:33N 38°01' E 012°30'11 0.9
2016-Dec-01 07:19N 37°52' E 012°22'1012.5
2016-Dec-01 06:33N 37°60' E 012°29'2 0.1
2016-Nov-30 10:05N 38°01' E 012°30'0 0.0
2016-Nov-30 08:29N 38°01' E 012°30'0 0.0
2016-Nov-30 06:27N 38°01' E 012°30'0 0.0
2016-Nov-30 05:29N 38°01' E 012°30'0 0.0
2016-Nov-30 04:33N 38°01' E 012°30'0 0.0
2016-Nov-30 03:33N 38°01' E 012°30'0 0.0
2016-Nov-30 02:33N 38°01' E 012°30'0 0.0
2016-Nov-29 21:29N 38°01' E 012°30'0 0.0
2016-Nov-29 20:33N 38°01' E 012°30'0 0.0
2016-Nov-29 19:33N 38°01' E 012°30'0 0.0
2016-Nov-29 18:33N 38°01' E 012°30'0 0.0
2016-Nov-29 17:33N 38°01' E 012°30'0 0.0
2016-Nov-29 16:33N 38°01' E 012°30'0 0.0
2016-Nov-29 15:34N 38°01' E 012°30'0 0.0
2016-Nov-29 14:34N 38°01' E 012°30'0 0.1
2016-Nov-29 13:33N 38°01' E 012°30'1110.8
2016-Nov-29 12:33N 37°53' E 012°21'1 0.1
2016-Nov-28 23:11N 37°51' E 012°22'812.2
2016-Nov-28 22:33N 37°58' E 012°26'4 4.1
2016-Nov-28 21:33N 38°01' E 012°30'0 0.0
2016-Nov-28 20:33N 38°01' E 012°30'0 0.0
2016-Nov-28 19:33N 38°01' E 012°30'0 0.0
2016-Nov-28 18:33N 38°01' E 012°30'0 0.0
2016-Nov-28 17:33N 38°01' E 012°30'0 0.0
2016-Nov-28 16:33N 38°01' E 012°30'0 0.0
2016-Nov-28 15:33N 38°01' E 012°30'2 2.2
2016-Nov-28 14:33N 37°59' E 012°28'9 0.6
2016-Nov-27 23:09N 37°52' E 012°22'711.9
2016-Nov-27 22:33N 37°58' E 012°26'  

Dump ship's entire track history